createdAt,value
2023-02-12T00:00:00.013Z,30.52
2023-02-12T00:01:03.491Z,28.83
2023-02-12T00:02:06.627Z,25.05
2023-02-12T00:03:09.900Z,24.75
2023-02-12T00:04:12.977Z,26.33
2023-02-12T00:05:16.945Z,31.02
2023-02-12T00:06:20.181Z,30.48
2023-02-12T00:07:23.300Z,24.60
2023-02-12T00:08:26.422Z,25.80
2023-02-12T00:09:29.543Z,30.33
2023-02-12T00:10:32.664Z,28.33
2023-02-12T00:11:35.787Z,28.67
2023-02-12T00:12:39.027Z,27.17
2023-02-12T00:13:42.513Z,30.48
2023-02-12T00:14:45.631Z,25.77
2023-02-12T00:15:48.908Z,22.58
2023-02-12T00:16:52.116Z,29.83
2023-02-12T00:17:55.356Z,26.60
2023-02-12T00:18:59.801Z,25.13
2023-02-12T00:20:03.400Z,27.73
2023-02-12T00:21:09.160Z,25.95
2023-02-12T00:22:12.403Z,28.75
2023-02-12T00:23:15.766Z,29.92
2023-02-12T00:24:18.887Z,26.63
2023-02-12T00:25:22.495Z,25.25
2023-02-12T00:26:25.992Z,33.50
2023-02-12T00:27:29.331Z,26.33
2023-02-12T00:28:32.617Z,25.13
2023-02-12T00:29:35.815Z,22.45
2023-02-12T00:30:42.332Z,31.27
2023-02-12T00:31:45.481Z,30.95
2023-02-12T00:32:48.541Z,26.13
2023-02-12T00:33:51.427Z,31.42
2023-02-12T00:34:54.799Z,23.95
2023-02-12T00:35:58.386Z,24.17
2023-02-12T00:37:01.268Z,27.15
2023-02-12T00:38:04.029Z,22.13
2023-02-12T00:39:06.683Z,27.40
2023-02-12T00:40:10.034Z,23.98
2023-02-12T00:41:14.472Z,25.67
2023-02-12T00:42:17.046Z,21.08
2023-02-12T00:43:20.054Z,29.55
2023-02-12T00:44:22.809Z,29.50
2023-02-12T00:45:25.329Z,30.73
2023-02-12T00:46:27.986Z,23.73
2023-02-12T00:47:30.612Z,21.75
2023-02-12T00:48:34.168Z,22.95
2023-02-12T00:49:36.693Z,26.52
2023-02-12T00:50:41.291Z,27.27
2023-02-12T00:51:43.902Z,20.73
2023-02-12T00:52:46.456Z,29.45
2023-02-12T00:53:49.178Z,27.02
2023-02-12T00:54:51.697Z,25.52
2023-02-12T00:55:54.740Z,20.65
2023-02-12T00:56:57.992Z,23.63
2023-02-12T00:58:04.817Z,21.15
2023-02-12T00:59:07.939Z,22.95
2023-02-12T01:00:12.110Z,22.33
2023-02-12T01:01:15.162Z,20.88
2023-02-12T01:02:18.286Z,18.73
2023-02-12T01:03:22.583Z,24.13
2023-02-12T01:04:25.194Z,27.75
2023-02-12T01:05:28.049Z,29.20
2023-02-12T01:06:30.514Z,21.90
2023-02-12T01:07:33.142Z,22.92
2023-02-12T01:08:35.904Z,23.73
2023-02-12T01:09:38.646Z,25.00
2023-02-12T01:10:42.991Z,36.83
2023-02-12T01:11:45.886Z,31.45
2023-02-12T01:12:49.236Z,32.30
2023-02-12T01:13:51.884Z,33.10
2023-02-12T01:14:54.511Z,32.13
2023-02-12T01:16:18.342Z,36.08
2023-02-12T01:17:20.912Z,34.88
2023-02-12T01:18:23.432Z,26.50
2023-02-12T01:19:26.316Z,28.50
2023-02-12T01:20:29.073Z,22.75
2023-02-12T01:21:34.358Z,26.13
2023-02-12T01:22:37.963Z,30.38
2023-02-12T01:23:41.564Z,27.23
2023-02-12T01:24:44.101Z,36.45
2023-02-12T01:25:46.980Z,30.13
2023-02-12T01:26:49.481Z,41.08
2023-02-12T01:27:54.164Z,41.20
2023-02-12T01:29:03.643Z,36.65
2023-02-12T01:30:08.570Z,36.22
2023-02-12T01:31:13.364Z,37.42
2023-02-12T01:32:16.029Z,29.33
2023-02-12T01:33:18.526Z,31.65
2023-02-12T01:34:21.067Z,24.52
2023-02-12T01:35:23.573Z,35.08
2023-02-12T01:36:27.538Z,34.70
2023-02-12T01:37:30.056Z,41.20
2023-02-12T01:38:32.812Z,37.17
2023-02-12T01:39:35.942Z,29.52
2023-02-12T01:40:38.695Z,38.85
2023-02-12T01:41:44.459Z,35.05
2023-02-12T01:42:47.585Z,32.55
2023-02-12T01:44:30.787Z,34.53
2023-02-12T01:45:45.568Z,27.13
2023-02-12T01:46:50.540Z,31.65
2023-02-12T01:47:53.598Z,25.73
2023-02-12T01:48:56.111Z,31.90
2023-02-12T01:49:58.885Z,30.83
2023-02-12T01:51:03.917Z,27.65
2023-02-12T01:52:09.080Z,29.92
2023-02-12T01:53:13.517Z,32.90
2023-02-12T01:54:20.121Z,29.45
2023-02-12T01:55:23.003Z,34.97
2023-02-12T01:56:26.012Z,31.83
2023-02-12T01:57:32.364Z,33.17
2023-02-12T01:58:39.687Z,32.28
2023-02-12T01:59:48.690Z,36.38
2023-02-12T02:00:51.809Z,35.40
2023-02-12T02:01:55.594Z,33.55
2023-02-12T02:03:02.464Z,28.73
2023-02-12T02:04:13.547Z,31.52
2023-02-12T02:05:44.377Z,30.60
2023-02-12T02:07:08.980Z,26.38
2023-02-12T02:08:13.302Z,36.20
2023-02-12T02:09:17.752Z,34.20
2023-02-12T02:10:20.984Z,36.22
2023-02-12T02:11:42.601Z,32.17
2023-02-12T02:13:04.188Z,31.23
2023-02-12T02:14:26.272Z,34.08
2023-02-12T02:15:32.281Z,26.40
2023-02-12T02:16:36.955Z,31.48
2023-02-12T02:18:10.321Z,31.88
2023-02-12T02:19:31.798Z,32.35
2023-02-12T02:21:20.524Z,31.25
2023-02-12T02:22:49.687Z,33.25
2023-02-12T02:24:14.173Z,29.88
2023-02-12T02:26:05.649Z,30.98
2023-02-12T02:27:16.451Z,31.70
2023-02-12T02:29:27.136Z,28.13
2023-02-12T02:30:46.471Z,24.80
2023-02-12T02:32:07.147Z,35.75
2023-02-12T02:33:38.068Z,30.33
2023-02-12T02:34:50.310Z,27.88
2023-02-12T02:36:05.786Z,26.10
2023-02-12T02:37:19.945Z,47.30
2023-02-12T02:38:48.508Z,32.72
2023-02-12T02:40:12.158Z,31.63
2023-02-12T02:41:30.769Z,37.72
2023-02-12T02:42:58.781Z,29.73
2023-02-12T02:44:08.129Z,25.25
2023-02-12T02:45:16.249Z,33.33
2023-02-12T02:46:36.634Z,30.55
2023-02-12T02:48:05.128Z,25.60
2023-02-12T02:49:13.843Z,29.52
2023-02-12T02:50:21.209Z,32.22
2023-02-12T02:51:32.261Z,30.33
2023-02-12T02:52:57.690Z,30.92
2023-02-12T02:54:09.574Z,29.05
2023-02-12T02:55:15.694Z,26.73
2023-02-12T02:56:22.255Z,28.70
2023-02-12T02:57:38.862Z,33.47
2023-02-12T02:58:57.458Z,32.13
2023-02-12T03:00:14.355Z,23.65
2023-02-12T03:01:26.048Z,26.95
2023-02-12T03:02:33.460Z,26.05
2023-02-12T03:03:45.584Z,25.77
2023-02-12T03:05:16.273Z,32.58
2023-02-12T03:06:32.864Z,28.23
2023-02-12T03:07:41.473Z,27.38
2023-02-12T03:08:51.347Z,26.98
2023-02-12T03:09:56.718Z,30.88
2023-02-12T03:11:16.094Z,30.63
2023-02-12T03:12:50.867Z,30.70
2023-02-12T03:14:02.985Z,25.70
2023-02-12T03:15:17.504Z,25.73
2023-02-12T03:16:29.811Z,21.50
2023-02-12T03:17:39.468Z,30.98
2023-02-12T03:19:10.322Z,25.08
2023-02-12T03:20:22.318Z,24.33
2023-02-12T03:21:48.711Z,36.00
2023-02-12T03:23:14.033Z,24.00
2023-02-12T03:24:26.876Z,24.67
2023-02-12T03:25:35.776Z,22.38
2023-02-12T03:26:46.919Z,27.02
2023-02-12T03:27:59.678Z,26.65
2023-02-12T03:29:02.285Z,30.48
2023-02-12T03:30:07.199Z,26.13
2023-02-12T03:31:31.147Z,25.50
2023-02-12T03:32:44.881Z,23.73
2023-02-12T03:34:34.687Z,28.00
2023-02-12T03:35:55.969Z,23.70
2023-02-12T03:37:03.745Z,25.27
2023-02-12T03:38:17.894Z,24.02
2023-02-12T03:39:35.418Z,28.23
2023-02-12T03:40:42.622Z,27.63
2023-02-12T03:41:56.894Z,27.02
2023-02-12T03:43:02.189Z,35.85
2023-02-12T03:44:18.619Z,25.58
2023-02-12T03:45:39.047Z,27.17
2023-02-12T03:46:51.022Z,23.30
2023-02-12T03:48:08.685Z,30.20
2023-02-12T03:49:20.429Z,32.15
2023-02-12T03:50:53.912Z,24.98
2023-02-12T03:51:58.474Z,27.58
2023-02-12T03:53:01.235Z,33.50
2023-02-12T03:54:06.991Z,28.00
2023-02-12T03:55:10.480Z,29.38
2023-02-12T03:56:19.720Z,33.30
2023-02-12T03:57:30.803Z,30.25
2023-02-12T03:58:35.801Z,32.47
2023-02-12T03:59:40.012Z,29.00
2023-02-12T04:00:43.554Z,24.58
2023-02-12T04:01:48.218Z,38.72
2023-02-12T04:02:52.971Z,35.70
2023-02-12T04:03:56.615Z,33.63
2023-02-12T04:05:06.050Z,30.13
2023-02-12T04:06:24.293Z,27.65
2023-02-12T04:07:27.410Z,33.55
2023-02-12T04:08:32.332Z,30.40
2023-02-12T04:09:35.453Z,27.88
2023-02-12T04:10:38.695Z,35.67
2023-02-12T04:12:09.547Z,38.97
2023-02-12T04:13:34.386Z,40.33
2023-02-12T04:14:52.260Z,32.95
2023-02-12T04:16:35.755Z,28.35
2023-02-12T04:18:21.067Z,25.05
2023-02-12T04:19:49.149Z,44.00
2023-02-12T04:20:59.475Z,29.58
2023-02-12T04:22:02.592Z,31.02
2023-02-12T04:23:43.040Z,34.33
2023-02-12T04:25:09.204Z,36.42
2023-02-12T04:26:24.094Z,32.20
2023-02-12T04:27:38.481Z,26.67
2023-02-12T04:28:57.929Z,36.22
2023-02-12T04:30:09.696Z,36.80
2023-02-12T04:31:25.541Z,33.55
2023-02-12T04:33:10.775Z,41.25
2023-02-12T04:34:49.898Z,37.55
2023-02-12T04:36:12.341Z,36.08
2023-02-12T04:37:39.464Z,32.53
2023-02-12T04:38:43.817Z,29.65
2023-02-12T04:39:48.827Z,50.97
2023-02-12T04:40:52.427Z,47.20
2023-02-12T04:41:58.431Z,27.17
2023-02-12T04:43:01.671Z,32.97
2023-02-12T04:44:18.480Z,42.38
2023-02-12T04:45:26.091Z,34.83
2023-02-12T04:46:28.645Z,45.13
2023-02-12T04:47:31.370Z,37.78
2023-02-12T04:48:34.926Z,35.95
2023-02-12T04:49:37.612Z,45.95
2023-02-12T04:50:43.766Z,34.65
2023-02-12T04:51:47.409Z,39.72
2023-02-12T04:52:50.062Z,38.97
2023-02-12T04:53:52.616Z,48.28
2023-02-12T04:54:55.141Z,36.28
2023-02-12T04:55:58.026Z,30.25
2023-02-12T04:57:00.975Z,35.47
2023-02-12T04:58:03.658Z,39.85
2023-02-12T04:59:06.298Z,33.53
2023-02-12T05:00:12.634Z,26.67
2023-02-12T05:01:15.372Z,39.08
2023-02-12T05:02:18.030Z,30.65
2023-02-12T05:03:20.580Z,32.40
2023-02-12T05:04:23.105Z,34.60
2023-02-12T05:05:26.445Z,40.28
2023-02-12T05:06:30.642Z,40.78
2023-02-12T05:07:33.155Z,35.33
2023-02-12T05:08:39.448Z,35.35
2023-02-12T05:09:42.310Z,46.97
2023-02-12T05:10:44.833Z,42.50
2023-02-12T05:11:47.441Z,35.92
2023-02-12T05:12:53.204Z,39.70
2023-02-12T05:13:55.846Z,36.22
2023-02-12T05:14:58.640Z,39.92
2023-02-12T05:16:04.818Z,43.90
2023-02-12T05:17:07.391Z,38.75
2023-02-12T05:18:10.157Z,33.92
2023-02-12T05:19:13.753Z,37.83
2023-02-12T05:20:16.407Z,47.17
2023-02-12T05:21:19.283Z,41.65
2023-02-12T05:22:22.046Z,32.22
2023-02-12T05:23:28.038Z,28.45
2023-02-12T05:24:30.677Z,27.55
2023-02-12T05:25:33.237Z,34.90
2023-02-12T05:26:36.691Z,45.38
2023-02-12T05:27:39.199Z,32.78
2023-02-12T05:28:42.081Z,39.63
2023-02-12T05:29:44.839Z,36.42
2023-02-12T05:30:47.412Z,44.83
2023-02-12T05:31:50.207Z,47.50
2023-02-12T05:32:52.768Z,40.58
2023-02-12T05:33:55.422Z,54.35
2023-02-12T05:34:57.926Z,40.33
2023-02-12T05:36:13.412Z,43.80
2023-02-12T05:37:16.054Z,37.67
2023-02-12T05:38:18.563Z,50.03
2023-02-12T05:39:20.964Z,50.08
2023-02-12T05:40:23.486Z,43.53
2023-02-12T05:41:26.856Z,35.70
2023-02-12T05:42:29.851Z,47.67
2023-02-12T05:43:32.488Z,39.13
2023-02-12T05:44:35.012Z,50.13
2023-02-12T05:45:38.256Z,48.80
2023-02-12T05:46:42.032Z,41.30
2023-02-12T05:47:44.619Z,56.03
2023-02-12T05:48:47.863Z,36.58
2023-02-12T05:49:50.381Z,41.45
2023-02-12T05:50:53.329Z,46.28
2023-02-12T05:51:55.902Z,37.83
2023-02-12T05:53:00.709Z,53.78
2023-02-12T05:54:06.237Z,37.28
2023-02-12T05:55:08.766Z,57.83
2023-02-12T05:56:11.398Z,48.50
2023-02-12T05:57:14.033Z,38.60
2023-02-12T05:58:16.914Z,37.10
2023-02-12T05:59:22.433Z,39.83
2023-02-12T06:00:25.201Z,46.72
2023-02-12T06:01:31.678Z,32.22
2023-02-12T06:02:35.323Z,42.53
2023-02-12T06:03:38.422Z,40.10
2023-02-12T06:04:41.282Z,41.83
2023-02-12T06:05:50.405Z,41.95
2023-02-12T06:06:54.508Z,41.97
2023-02-12T06:07:57.606Z,39.72
2023-02-12T06:09:01.858Z,45.92
2023-02-12T06:10:05.292Z,40.17
2023-02-12T06:11:13.219Z,37.60
2023-02-12T06:12:16.340Z,36.17
2023-02-12T06:13:19.458Z,47.53
2023-02-12T06:14:22.581Z,39.55
2023-02-12T06:15:25.702Z,40.65
2023-02-12T06:16:29.671Z,37.67
2023-02-12T06:17:34.708Z,36.55
2023-02-12T06:18:37.826Z,40.38
2023-02-12T06:19:40.954Z,36.92
2023-02-12T06:20:44.069Z,38.50
2023-02-12T06:21:47.562Z,35.63
2023-02-12T06:22:50.671Z,30.63
2023-02-12T06:23:54.162Z,44.88
2023-02-12T06:24:57.276Z,39.25
2023-02-12T06:26:00.414Z,40.13
2023-02-12T06:27:03.644Z,42.25
2023-02-12T06:28:06.785Z,49.78
2023-02-12T06:29:10.244Z,44.05
2023-02-12T06:30:13.965Z,33.50
2023-02-12T06:31:24.970Z,37.65
2023-02-12T06:32:28.375Z,38.22
2023-02-12T06:33:31.849Z,38.70
2023-02-12T06:34:35.693Z,44.40
2023-02-12T06:35:39.659Z,36.33
2023-02-12T06:36:45.298Z,40.35
2023-02-12T06:37:48.541Z,47.97
2023-02-12T06:38:52.140Z,35.72
2023-02-12T06:39:55.142Z,49.03
2023-02-12T06:41:01.506Z,45.25
2023-02-12T06:42:04.397Z,52.25
2023-02-12T06:43:07.270Z,41.80
2023-02-12T06:44:11.851Z,41.35
2023-02-12T06:45:14.720Z,37.15
2023-02-12T06:46:17.446Z,42.75
2023-02-12T06:47:20.124Z,36.17
2023-02-12T06:48:22.815Z,45.65
2023-02-12T06:49:25.281Z,58.10
2023-02-12T06:50:29.361Z,35.25
2023-02-12T06:51:32.495Z,49.78
2023-02-12T06:52:35.136Z,45.45
2023-02-12T06:53:38.428Z,50.97
2023-02-12T06:54:41.128Z,44.45
2023-02-12T06:55:43.695Z,51.55
2023-02-12T06:56:46.335Z,43.03
2023-02-12T06:57:49.180Z,37.58
2023-02-12T06:58:56.906Z,36.35
2023-02-12T06:59:59.436Z,54.05
2023-02-12T07:01:23.859Z,49.38
2023-02-12T07:02:26.421Z,44.17
2023-02-12T07:03:28.933Z,41.97
2023-02-12T07:04:31.463Z,41.20
2023-02-12T07:05:37.942Z,41.50
2023-02-12T07:06:40.588Z,48.58
2023-02-12T07:07:43.104Z,37.95
2023-02-12T07:08:45.623Z,47.20
2023-02-12T07:09:48.270Z,46.40
2023-02-12T07:10:51.031Z,51.30
2023-02-12T07:11:53.761Z,34.70
2023-02-12T07:12:56.328Z,40.90
2023-02-12T07:13:59.553Z,40.05
2023-02-12T07:15:02.189Z,44.53
2023-02-12T07:16:13.368Z,45.38
2023-02-12T07:17:15.967Z,35.88
2023-02-12T07:18:18.871Z,37.03
2023-02-12T07:19:21.871Z,35.03
2023-02-12T07:20:24.492Z,34.25
2023-02-12T07:21:27.039Z,41.58
2023-02-12T07:22:29.671Z,37.65
2023-02-12T07:23:33.155Z,36.13
2023-02-12T07:24:35.698Z,39.42
2023-02-12T07:25:38.699Z,45.78
2023-02-12T07:26:41.796Z,34.70
2023-02-12T07:27:44.315Z,41.97
2023-02-12T07:28:46.845Z,38.60
2023-02-12T07:29:49.599Z,37.97
2023-02-12T07:30:52.155Z,46.83
2023-02-12T07:31:54.683Z,41.97
2023-02-12T07:32:57.159Z,41.47
2023-02-12T07:34:00.886Z,36.65
2023-02-12T07:35:03.401Z,43.13
2023-02-12T07:36:09.043Z,31.98
2023-02-12T07:37:11.580Z,33.65
2023-02-12T07:38:14.206Z,30.02
2023-02-12T07:39:16.738Z,38.50
2023-02-12T07:40:19.367Z,44.78
2023-02-12T07:41:24.785Z,37.70
2023-02-12T07:42:29.353Z,42.70
2023-02-12T07:43:31.848Z,34.25
2023-02-12T07:44:34.611Z,36.88
2023-02-12T07:45:39.670Z,33.75
2023-02-12T07:46:49.151Z,31.42
2023-02-12T07:47:52.015Z,36.05
2023-02-12T07:48:54.782Z,41.75
2023-02-12T07:49:57.299Z,31.23
2023-02-12T07:51:07.386Z,36.85
2023-02-12T07:52:12.212Z,30.73
2023-02-12T07:53:15.799Z,34.10
2023-02-12T07:54:18.694Z,31.75
2023-02-12T07:55:21.309Z,29.42
2023-02-12T07:56:29.612Z,26.70
2023-02-12T07:57:32.233Z,24.95
2023-02-12T07:58:35.121Z,30.67
2023-02-12T07:59:37.761Z,28.88
2023-02-12T08:00:40.405Z,26.25
2023-02-12T08:01:46.879Z,29.00
2023-02-12T08:02:55.402Z,22.88
2023-02-12T08:04:00.739Z,23.35
2023-02-12T08:05:03.457Z,23.75
2023-02-12T08:06:13.055Z,26.27
2023-02-12T08:07:16.170Z,22.90
2023-02-12T08:08:19.302Z,19.52
2023-02-12T08:09:27.974Z,23.70
2023-02-12T08:10:32.500Z,21.63
2023-02-12T08:11:35.975Z,24.65
2023-02-12T08:12:39.103Z,27.92
2023-02-12T08:13:42.824Z,19.95
2023-02-12T08:14:45.946Z,21.25
2023-02-12T08:15:49.206Z,26.13
2023-02-12T08:16:52.875Z,18.60
2023-02-12T08:17:56.030Z,24.30
2023-02-12T08:19:10.736Z,23.75
2023-02-12T08:20:19.474Z,20.60
2023-02-12T08:21:27.832Z,24.40
2023-02-12T08:22:30.959Z,20.83
2023-02-12T08:23:34.798Z,18.55
2023-02-12T08:24:38.045Z,23.92
2023-02-12T08:25:41.280Z,17.73
2023-02-12T08:26:44.879Z,19.17
2023-02-12T08:27:48.003Z,22.52
2023-02-12T08:28:55.804Z,18.40
2023-02-12T08:29:58.930Z,17.88
2023-02-12T08:31:08.134Z,15.75
2023-02-12T08:32:14.404Z,16.17
2023-02-12T08:33:17.775Z,17.70
2023-02-12T08:34:24.031Z,18.55
2023-02-12T08:35:28.337Z,20.83
2023-02-12T08:36:38.418Z,19.08
2023-02-12T08:37:41.542Z,23.67
2023-02-12T08:38:46.714Z,17.42
2023-02-12T08:39:49.705Z,16.10
2023-02-12T08:40:52.971Z,16.92
2023-02-12T08:41:57.517Z,16.02
2023-02-12T08:43:00.645Z,15.65
2023-02-12T08:44:05.438Z,14.38
2023-02-12T08:45:08.910Z,15.20
2023-02-12T08:46:15.463Z,14.68
2023-02-12T08:47:18.158Z,14.68
2023-02-12T08:48:21.034Z,14.57
2023-02-12T08:49:26.437Z,12.40
2023-02-12T08:50:29.199Z,12.82
2023-02-12T08:51:36.057Z,11.82
2023-02-12T08:52:38.740Z,11.02
2023-02-12T08:53:44.849Z,9.73
2023-02-12T08:54:47.500Z,12.45
2023-02-12T08:55:50.802Z,12.95
2023-02-12T08:56:59.455Z,9.10
2023-02-12T08:58:03.089Z,8.75
2023-02-12T08:59:07.608Z,12.38
2023-02-12T09:00:10.893Z,10.35
2023-02-12T09:01:16.934Z,8.38
2023-02-12T09:02:19.421Z,8.43
2023-02-12T09:03:22.173Z,8.20
2023-02-12T09:04:27.113Z,8.52
2023-02-12T09:05:29.817Z,10.70
2023-02-12T09:06:34.500Z,7.50
2023-02-12T09:07:37.055Z,10.00
2023-02-12T09:08:40.174Z,9.40
2023-02-12T09:09:42.708Z,8.07
2023-02-12T09:10:47.017Z,8.30
2023-02-12T09:11:53.052Z,9.98
2023-02-12T09:12:55.541Z,8.52
2023-02-12T09:14:00.576Z,10.02
2023-02-12T09:15:03.700Z,9.38
2023-02-12T09:16:07.202Z,8.55
2023-02-12T09:17:09.830Z,11.20
2023-02-12T09:18:14.847Z,9.18
2023-02-12T09:19:19.306Z,10.75
2023-02-12T09:20:21.839Z,8.35
2023-02-12T09:21:24.704Z,7.43
2023-02-12T09:22:27.239Z,8.60
2023-02-12T09:23:30.109Z,10.05
2023-02-12T09:24:33.114Z,8.90
2023-02-12T09:25:40.672Z,8.43
2023-02-12T09:26:43.429Z,10.27
2023-02-12T09:27:45.948Z,7.50
2023-02-12T09:28:50.170Z,8.38
2023-02-12T09:29:52.812Z,13.50
2023-02-12T09:30:55.499Z,8.95
2023-02-12T09:31:58.230Z,7.35
2023-02-12T09:33:00.953Z,8.52
2023-02-12T09:34:07.554Z,9.30
2023-02-12T09:35:12.724Z,10.45
2023-02-12T09:36:17.037Z,9.98
2023-02-12T09:37:19.557Z,11.93
2023-02-12T09:38:22.075Z,9.02
2023-02-12T09:39:24.615Z,8.80
2023-02-12T09:40:47.412Z,9.90
2023-02-12T09:41:52.800Z,9.43
2023-02-12T09:43:29.042Z,11.23
2023-02-12T09:45:00.492Z,9.20
2023-02-12T09:46:14.664Z,8.88
2023-02-12T09:47:17.171Z,10.15
2023-02-12T09:48:53.771Z,14.80
2023-02-12T09:50:03.370Z,7.95
2023-02-12T09:51:08.776Z,10.43
2023-02-12T09:52:18.146Z,11.35
2023-02-12T09:53:25.096Z,9.18
2023-02-12T09:54:38.424Z,9.00
2023-02-12T09:55:41.190Z,9.13
2023-02-12T09:56:50.187Z,6.93
2023-02-12T09:57:54.905Z,9.02
2023-02-12T09:59:01.369Z,8.25
2023-02-12T10:00:24.873Z,9.55
2023-02-12T10:01:28.531Z,9.57
2023-02-12T10:02:31.365Z,8.30
2023-02-12T10:03:34.241Z,7.50
2023-02-12T10:04:37.044Z,10.23
2023-02-12T10:05:48.404Z,7.60
2023-02-12T10:07:18.045Z,9.93
2023-02-12T10:08:49.129Z,7.53
2023-02-12T10:10:21.180Z,7.93
2023-02-12T10:11:42.414Z,8.38
2023-02-12T10:12:58.506Z,8.23
2023-02-12T10:14:35.229Z,8.90
2023-02-12T10:15:59.921Z,8.30
2023-02-12T10:17:42.547Z,8.48
2023-02-12T10:19:06.813Z,9.27
2023-02-12T10:20:40.336Z,9.25
2023-02-12T10:21:58.270Z,7.43
2023-02-12T10:23:10.038Z,7.60
2023-02-12T10:24:44.724Z,6.75
2023-02-12T10:25:54.702Z,7.95
2023-02-12T10:27:03.681Z,8.02
2023-02-12T10:28:15.005Z,7.97
2023-02-12T10:29:22.520Z,8.88
2023-02-12T10:30:48.637Z,8.38
2023-02-12T10:33:08.486Z,12.40
2023-02-12T10:34:23.131Z,9.20
2023-02-12T10:35:26.976Z,9.40
2023-02-12T10:36:35.736Z,10.82
2023-02-12T10:37:52.666Z,8.43
2023-02-12T10:39:24.098Z,7.82
2023-02-12T10:40:33.214Z,9.93
2023-02-12T10:41:40.056Z,8.10
2023-02-12T10:42:46.789Z,9.52
2023-02-12T10:43:50.022Z,9.50
2023-02-12T10:44:53.144Z,8.05
2023-02-12T10:45:56.570Z,8.55
2023-02-12T10:46:59.505Z,9.00
2023-02-12T10:48:11.027Z,8.80
2023-02-12T10:49:16.912Z,8.85
2023-02-12T10:50:45.122Z,6.18
2023-02-12T10:52:11.205Z,8.80
2023-02-12T10:53:25.795Z,6.55
2023-02-12T10:54:38.448Z,7.60
2023-02-12T10:55:40.924Z,7.50
2023-02-12T10:56:43.680Z,6.70
2023-02-12T10:57:46.448Z,6.97
2023-02-12T10:59:01.841Z,8.70
2023-02-12T11:00:37.692Z,9.70
2023-02-12T11:01:42.197Z,6.57
2023-02-12T11:03:05.455Z,7.20
2023-02-12T11:04:40.594Z,7.18
2023-02-12T11:05:44.940Z,6.50
2023-02-12T11:06:59.666Z,8.45
2023-02-12T11:08:02.453Z,5.75
2023-02-12T11:09:28.148Z,6.67
2023-02-12T11:10:39.994Z,6.35
2023-02-12T11:11:42.863Z,7.25
2023-02-12T11:12:48.515Z,6.05
2023-02-12T11:13:58.467Z,5.20
2023-02-12T11:15:17.597Z,7.15
2023-02-12T11:16:37.985Z,7.00
2023-02-12T11:17:43.628Z,5.57
2023-02-12T11:18:57.421Z,4.57
2023-02-12T11:20:18.067Z,7.32
2023-02-12T11:21:23.582Z,8.07
2023-02-12T11:22:26.354Z,5.63
2023-02-12T11:23:39.907Z,5.57
2023-02-12T11:24:42.428Z,7.32
2023-02-12T11:25:56.705Z,5.25
2023-02-12T11:27:24.795Z,4.85
2023-02-12T11:28:28.744Z,7.63
2023-02-12T11:29:33.791Z,7.47
2023-02-12T11:30:36.792Z,7.07
2023-02-12T11:31:41.754Z,6.10
2023-02-12T11:32:44.597Z,6.15
2023-02-12T11:33:47.111Z,8.40
2023-02-12T11:35:24.194Z,7.38
2023-02-12T11:36:28.157Z,6.10
2023-02-12T11:37:36.569Z,6.03
2023-02-12T11:38:52.279Z,8.82
2023-02-12T11:39:54.797Z,6.25
2023-02-12T11:41:01.640Z,9.18
2023-02-12T11:42:22.694Z,6.13
2023-02-12T11:43:27.678Z,8.35
2023-02-12T11:44:37.890Z,7.03
2023-02-12T11:45:52.171Z,9.10
2023-02-12T11:47:02.275Z,7.70
2023-02-12T11:48:33.125Z,8.23
2023-02-12T11:49:43.997Z,7.22
2023-02-12T11:50:49.785Z,6.80
2023-02-12T11:51:53.255Z,8.90
2023-02-12T11:53:09.941Z,12.32
2023-02-12T11:54:20.509Z,8.68
2023-02-12T11:55:33.918Z,12.00
2023-02-12T11:56:45.953Z,10.32
2023-02-12T11:57:54.850Z,12.38
2023-02-12T11:59:12.825Z,11.18
2023-02-12T12:00:21.346Z,8.88
2023-02-12T12:01:34.934Z,10.15
2023-02-12T12:02:42.986Z,11.07
2023-02-12T12:04:03.609Z,11.18
2023-02-12T12:05:15.965Z,11.68
2023-02-12T12:06:34.084Z,11.48
2023-02-12T12:07:39.479Z,13.32
2023-02-12T12:08:48.479Z,11.48
2023-02-12T12:10:12.239Z,10.80
2023-02-12T12:11:47.047Z,12.30
2023-02-12T12:12:56.772Z,11.95
2023-02-12T12:14:13.807Z,11.50
2023-02-12T12:15:42.739Z,13.23
2023-02-12T12:17:11.890Z,9.07
2023-02-12T12:19:00.378Z,14.32
2023-02-12T12:20:26.538Z,15.70
2023-02-12T12:21:47.419Z,13.40
2023-02-12T12:24:11.782Z,12.05
2023-02-12T12:25:32.785Z,11.85
2023-02-12T12:28:10.489Z,13.68
2023-02-12T12:29:40.113Z,13.45
2023-02-12T12:31:09.506Z,15.40
2023-02-12T12:32:16.966Z,17.38
2023-02-12T12:33:25.717Z,14.80
2023-02-12T12:34:30.049Z,16.85
2023-02-12T12:35:54.734Z,17.52
2023-02-12T12:37:13.491Z,17.33
2023-02-12T12:38:55.611Z,18.67
2023-02-12T12:40:23.569Z,17.88
2023-02-12T12:41:41.338Z,18.60
2023-02-12T12:43:08.820Z,20.38
2023-02-12T12:44:30.668Z,19.98
2023-02-12T12:45:48.446Z,18.55
2023-02-12T12:47:11.825Z,18.85
2023-02-12T12:48:35.226Z,23.48
2023-02-12T12:49:47.826Z,26.85
2023-02-12T12:51:15.443Z,30.13
2023-02-12T12:52:27.910Z,23.27
2023-02-12T12:53:58.156Z,23.75
2023-02-12T12:55:03.793Z,25.92
2023-02-12T12:56:20.726Z,25.38
2023-02-12T12:57:42.805Z,26.00
2023-02-12T12:58:54.202Z,24.02
2023-02-12T13:00:06.732Z,21.20
2023-02-12T13:01:25.990Z,19.38
2023-02-12T13:02:38.502Z,22.95
2023-02-12T13:04:14.428Z,19.83
2023-02-12T13:05:48.328Z,20.05
2023-02-12T13:07:32.790Z,22.02
2023-02-12T13:09:13.112Z,24.42
2023-02-12T13:10:33.379Z,19.27
2023-02-12T13:12:06.596Z,18.88
2023-02-12T13:13:21.117Z,17.67
2023-02-12T13:14:30.591Z,17.23
2023-02-12T13:15:46.313Z,18.45
2023-02-12T13:17:14.038Z,15.75
2023-02-12T13:18:43.218Z,13.60
2023-02-12T13:19:55.105Z,16.23
2023-02-12T13:21:11.429Z,19.13
2023-02-12T13:22:23.783Z,13.50
2023-02-12T13:23:46.233Z,18.77
2023-02-12T13:25:16.950Z,15.80
2023-02-12T13:26:37.593Z,14.55
2023-02-12T13:27:42.523Z,10.23
2023-02-12T13:29:04.726Z,16.60
2023-02-12T13:30:19.835Z,14.90
2023-02-12T13:31:34.697Z,13.02
2023-02-12T13:32:45.635Z,13.82
2023-02-12T13:34:57.279Z,14.00
2023-02-12T13:36:05.566Z,17.27
2023-02-12T13:37:25.718Z,14.40
2023-02-12T13:39:05.083Z,13.17
2023-02-12T13:40:14.326Z,13.77
2023-02-12T13:41:19.241Z,16.02
2023-02-12T13:42:27.424Z,13.20
2023-02-12T13:43:51.525Z,14.38
2023-02-12T13:45:01.611Z,19.70
2023-02-12T13:46:38.923Z,13.93
2023-02-12T13:47:59.569Z,16.85
2023-02-12T13:49:19.125Z,18.65
2023-02-12T13:50:33.307Z,15.63
2023-02-12T13:51:49.131Z,17.75
2023-02-12T13:53:02.453Z,14.48
2023-02-12T13:54:14.938Z,15.32
2023-02-12T13:55:20.336Z,14.82
2023-02-12T13:56:29.581Z,13.50
2023-02-12T13:57:32.217Z,15.00
2023-02-12T13:58:40.389Z,15.63
2023-02-12T13:59:49.264Z,15.98
2023-02-12T14:00:51.793Z,13.75
2023-02-12T14:01:54.349Z,15.75
2023-02-12T14:02:57.189Z,15.35
2023-02-12T14:04:16.036Z,18.15
2023-02-12T14:05:25.513Z,17.65
2023-02-12T14:06:29.114Z,18.77
2023-02-12T14:07:47.956Z,18.25
2023-02-12T14:08:51.917Z,15.68
2023-02-12T14:09:54.802Z,19.15
2023-02-12T14:11:07.892Z,18.58
2023-02-12T14:12:13.523Z,15.32
2023-02-12T14:13:21.804Z,16.88
2023-02-12T14:14:34.773Z,17.58
2023-02-12T14:15:41.514Z,17.75
2023-02-12T14:16:45.208Z,17.33
2023-02-12T14:18:01.540Z,20.63
2023-02-12T14:19:38.253Z,13.20
2023-02-12T14:20:42.454Z,13.43
2023-02-12T14:21:45.697Z,19.35
2023-02-12T14:22:48.835Z,17.35
2023-02-12T14:23:53.262Z,15.38
2023-02-12T14:24:58.189Z,13.98
2023-02-12T14:26:05.748Z,16.35
2023-02-12T14:27:40.786Z,16.15
2023-02-12T14:28:56.027Z,17.45
2023-02-12T14:30:08.157Z,18.30
2023-02-12T14:31:23.437Z,17.50
2023-02-12T14:32:55.551Z,16.10
2023-02-12T14:34:08.037Z,19.65
2023-02-12T14:35:35.878Z,15.93
2023-02-12T14:36:44.297Z,14.95
2023-02-12T14:37:47.521Z,21.35
2023-02-12T14:39:03.020Z,17.50
2023-02-12T14:40:40.928Z,20.05
2023-02-12T14:41:44.294Z,13.77
2023-02-12T14:42:56.668Z,17.50
2023-02-12T14:44:38.786Z,14.90
2023-02-12T14:45:41.899Z,16.85
2023-02-12T14:47:05.536Z,13.95
2023-02-12T14:48:47.059Z,18.88
2023-02-12T14:50:56.183Z,16.98
2023-02-12T14:52:14.073Z,15.02
2023-02-12T14:53:31.840Z,15.27
2023-02-12T14:54:47.670Z,17.75
2023-02-12T14:55:52.160Z,14.27
2023-02-12T14:56:57.804Z,14.43
2023-02-12T14:58:20.226Z,18.35
2023-02-12T14:59:26.316Z,14.75
2023-02-12T15:00:36.562Z,16.13
2023-02-12T15:01:39.696Z,20.88
2023-02-12T15:02:45.165Z,18.95
2023-02-12T15:03:54.207Z,15.98
2023-02-12T15:05:12.479Z,17.92
2023-02-12T15:06:20.211Z,16.33
2023-02-12T15:07:51.928Z,17.42
2023-02-12T15:08:57.292Z,13.95